createdAt,value
2023-05-06T00:02:22.047Z,10.08
2023-05-06T00:04:50.360Z,10.03
2023-05-06T00:07:18.495Z,9.96
2023-05-06T00:09:46.584Z,9.89
2023-05-06T00:12:15.144Z,9.86
2023-05-06T00:14:43.258Z,9.87
2023-05-06T00:17:11.849Z,9.91
2023-05-06T00:19:41.358Z,9.95
2023-05-06T00:22:09.441Z,9.96
2023-05-06T00:24:37.545Z,9.96
2023-05-06T00:27:05.745Z,9.88
2023-05-06T00:29:33.834Z,9.87
2023-05-06T00:32:02.185Z,9.77
2023-05-06T00:34:30.450Z,9.69
2023-05-06T00:36:59.994Z,9.67
2023-05-06T00:39:28.037Z,9.61
2023-05-06T00:42:02.356Z,9.55
2023-05-06T00:44:30.682Z,9.52
2023-05-06T00:47:00.872Z,9.46
2023-05-06T00:49:30.483Z,9.43
2023-05-06T00:52:02.771Z,9.44
2023-05-06T00:54:30.975Z,9.46
2023-05-06T00:56:59.187Z,9.44
2023-05-06T00:59:27.307Z,9.44
2023-05-06T01:01:55.558Z,9.46
2023-05-06T01:04:25.166Z,9.45
2023-05-06T01:07:06.153Z,9.48
2023-05-06T01:09:40.854Z,9.46
2023-05-06T01:12:13.564Z,9.48
2023-05-06T01:14:44.466Z,9.46
2023-05-06T01:17:14.227Z,9.43
2023-05-06T01:19:46.739Z,9.43
2023-05-06T01:22:16.928Z,9.40
2023-05-06T01:24:48.096Z,9.41
2023-05-06T01:27:18.379Z,9.40
2023-05-06T01:29:48.618Z,9.37
2023-05-06T01:32:34.562Z,9.35
2023-05-06T01:35:11.102Z,9.38
2023-05-06T01:37:46.680Z,9.28
2023-05-06T01:40:17.634Z,9.28
2023-05-06T01:42:48.902Z,9.27
2023-05-06T01:45:19.516Z,9.27
2023-05-06T01:47:48.307Z,9.21
2023-05-06T01:50:16.886Z,9.24
2023-05-06T01:52:45.042Z,9.23
2023-05-06T01:55:13.161Z,9.15
2023-05-06T01:57:42.646Z,9.20
2023-05-06T02:00:11.683Z,9.20
2023-05-06T02:02:39.822Z,9.19
2023-05-06T02:05:09.331Z,9.18
2023-05-06T02:07:37.656Z,9.15
2023-05-06T02:10:06.361Z,9.13
2023-05-06T02:12:34.477Z,9.06
2023-05-06T02:15:04.352Z,9.03
2023-05-06T02:17:32.487Z,9.06
2023-05-06T02:20:00.820Z,9.08
2023-05-06T02:22:28.886Z,9.11
2023-05-06T02:24:57.002Z,9.13
2023-05-06T02:27:25.199Z,9.15
2023-05-06T02:29:53.266Z,9.16
2023-05-06T02:32:22.814Z,9.19
2023-05-06T02:34:51.793Z,9.28
2023-05-06T02:37:19.924Z,9.36
2023-05-06T02:39:47.993Z,9.43
2023-05-06T02:42:16.895Z,9.42
2023-05-06T02:44:45.080Z,9.40
2023-05-06T02:47:13.119Z,9.39
2023-05-06T02:49:42.590Z,9.32
2023-05-06T02:52:10.718Z,9.28
2023-05-06T02:54:38.767Z,9.25
2023-05-06T02:57:06.847Z,9.18
2023-05-06T02:59:35.153Z,9.11
2023-05-06T03:02:03.284Z,9.07
2023-05-06T03:04:31.493Z,8.99
2023-05-06T03:07:01.000Z,8.97
2023-05-06T03:09:29.074Z,8.97
2023-05-06T03:11:57.913Z,8.98
2023-05-06T03:14:26.228Z,9.02
2023-05-06T03:16:54.331Z,9.07
2023-05-06T03:19:22.580Z,9.08
2023-05-06T03:21:50.854Z,9.08
2023-05-06T03:24:20.331Z,9.14
2023-05-06T03:26:48.460Z,9.13
2023-05-06T03:29:16.620Z,9.15
2023-05-06T03:31:44.773Z,9.15
2023-05-06T03:34:12.997Z,9.16
2023-05-06T03:36:41.424Z,9.19
2023-05-06T03:39:09.590Z,9.26
2023-05-06T03:41:39.044Z,9.31
2023-05-06T03:44:07.134Z,9.36
2023-05-06T03:46:35.324Z,9.44
2023-05-06T03:49:03.660Z,9.50
2023-05-06T03:51:31.890Z,9.60
2023-05-06T03:54:00.454Z,9.73
2023-05-06T03:56:28.504Z,9.85
2023-05-06T03:58:58.055Z,9.96
2023-05-06T04:01:28.940Z,10.12
2023-05-06T04:03:57.101Z,10.35
2023-05-06T04:06:26.207Z,10.49
2023-05-06T04:08:57.060Z,10.63
2023-05-06T04:11:25.249Z,10.81
2023-05-06T04:13:53.370Z,10.94
2023-05-06T04:16:23.307Z,10.96
2023-05-06T04:18:51.828Z,11.07
2023-05-06T04:21:19.975Z,11.22
2023-05-06T04:23:48.083Z,11.31
2023-05-06T04:26:18.979Z,11.36
2023-05-06T04:28:47.142Z,11.53
2023-05-06T04:31:15.701Z,11.67
2023-05-06T04:33:45.219Z,11.83
2023-05-06T04:36:13.377Z,11.91
2023-05-06T04:38:41.887Z,11.89
2023-05-06T04:41:10.022Z,11.72
2023-05-06T04:43:38.114Z,11.66
2023-05-06T04:46:06.386Z,11.64
2023-05-06T04:48:34.539Z,11.59
2023-05-06T04:51:05.503Z,11.59
2023-05-06T04:53:33.741Z,11.58
2023-05-06T04:56:01.840Z,11.53
2023-05-06T04:58:34.547Z,11.72
2023-05-06T05:01:05.927Z,11.86
2023-05-06T05:03:34.018Z,12.01
2023-05-06T05:06:03.563Z,12.15
2023-05-06T05:08:31.701Z,12.39
2023-05-06T05:11:01.698Z,12.60
2023-05-06T05:13:29.787Z,12.79
2023-05-06T05:15:58.050Z,13.09
2023-05-06T05:18:26.295Z,13.34
2023-05-06T05:20:54.506Z,13.60
2023-05-06T05:23:24.320Z,13.84
2023-05-06T05:25:52.434Z,14.01
2023-05-06T05:28:20.455Z,14.27
2023-05-06T05:30:48.611Z,14.72
2023-05-06T05:33:17.088Z,15.17
2023-05-06T05:35:45.385Z,15.53
2023-05-06T05:38:14.437Z,16.06
2023-05-06T05:40:43.969Z,16.45
2023-05-06T05:43:12.070Z,17.15
2023-05-06T05:45:40.134Z,18.15
2023-05-06T05:48:08.300Z,19.24
2023-05-06T05:50:36.437Z,20.15
2023-05-06T05:53:05.725Z,20.94
2023-05-06T05:55:33.883Z,20.74
2023-05-06T05:58:03.400Z,22.00
2023-05-06T06:00:31.469Z,22.59
2023-05-06T06:02:59.750Z,22.89
2023-05-06T06:05:27.983Z,23.53
2023-05-06T06:07:56.134Z,23.81
2023-05-06T06:10:24.267Z,23.58
2023-05-06T06:12:52.476Z,23.63
2023-05-06T06:15:22.371Z,24.01
2023-05-06T06:17:50.518Z,23.29
2023-05-06T06:20:18.773Z,22.66
2023-05-06T06:22:47.054Z,22.96
2023-05-06T06:25:15.332Z,23.11
2023-05-06T06:27:43.415Z,22.18
2023-05-06T06:30:12.179Z,22.49
2023-05-06T06:32:49.619Z,22.46
2023-05-06T06:35:18.119Z,22.06
2023-05-06T06:37:46.282Z,22.55
2023-05-06T06:40:15.105Z,23.10
2023-05-06T06:42:43.327Z,22.41
2023-05-06T06:45:12.634Z,22.83
2023-05-06T06:47:42.447Z,22.61
2023-05-06T06:50:11.611Z,22.52
2023-05-06T06:52:39.698Z,22.86
2023-05-06T06:55:08.911Z,22.88
2023-05-06T06:57:37.939Z,22.84
2023-05-06T07:00:06.647Z,22.92
2023-05-06T07:02:34.909Z,22.12
2023-05-06T07:05:04.443Z,22.31
2023-05-06T07:07:32.589Z,22.32
2023-05-06T07:10:01.108Z,22.74
2023-05-06T07:12:29.354Z,23.16
2023-05-06T07:14:57.464Z,23.19
2023-05-06T07:17:25.790Z,23.09
2023-05-06T07:19:54.080Z,23.04
2023-05-06T07:22:23.608Z,23.22
2023-05-06T07:24:51.716Z,23.28
2023-05-06T07:27:19.869Z,23.36
2023-05-06T07:29:48.074Z,23.48
2023-05-06T07:32:22.497Z,23.62
2023-05-06T07:34:51.034Z,23.51
2023-05-06T07:37:19.152Z,23.62
2023-05-06T07:39:48.776Z,23.84
2023-05-06T07:42:19.247Z,23.87
2023-05-06T07:44:47.408Z,23.80
2023-05-06T07:47:27.727Z,24.12
2023-05-06T07:49:57.733Z,24.08
2023-05-06T07:52:26.262Z,24.20
2023-05-06T07:54:55.828Z,24.17
2023-05-06T07:57:23.930Z,24.30
2023-05-06T07:59:53.310Z,24.23
2023-05-06T08:02:21.502Z,24.68
2023-05-06T08:04:51.647Z,24.81
2023-05-06T08:07:20.522Z,24.38
2023-05-06T08:09:48.800Z,24.18
2023-05-06T08:12:18.393Z,24.32
2023-05-06T08:14:46.824Z,24.33
2023-05-06T08:17:14.978Z,24.49
2023-05-06T08:19:46.455Z,24.69
2023-05-06T08:22:18.825Z,24.75
2023-05-06T08:24:50.348Z,24.51
2023-05-06T08:27:23.479Z,23.90
2023-05-06T08:29:54.263Z,23.89
2023-05-06T08:32:25.933Z,23.81
2023-05-06T08:34:58.897Z,23.88
2023-05-06T08:37:31.159Z,24.13
2023-05-06T08:40:00.021Z,23.84
2023-05-06T08:42:31.567Z,23.86
2023-05-06T08:45:00.792Z,24.29
2023-05-06T08:47:32.196Z,24.54
2023-05-06T08:50:04.870Z,24.66
2023-05-06T08:52:36.575Z,24.60
2023-05-06T08:55:09.170Z,24.63
2023-05-06T08:57:43.583Z,24.80
2023-05-06T09:00:16.217Z,25.01
2023-05-06T09:02:47.868Z,24.86
2023-05-06T09:05:18.963Z,25.10
2023-05-06T09:07:50.110Z,24.95
2023-05-06T09:10:21.443Z,24.42
2023-05-06T09:12:58.841Z,24.60
2023-05-06T09:15:30.266Z,24.49
2023-05-06T09:18:04.161Z,24.56
2023-05-06T09:20:37.692Z,24.67
2023-05-06T09:23:10.710Z,24.62
2023-05-06T09:25:42.560Z,24.87
2023-05-06T09:28:16.490Z,25.15
2023-05-06T09:30:52.121Z,25.36
2023-05-06T09:33:24.149Z,25.04
2023-05-06T09:35:55.628Z,25.36
2023-05-06T09:38:27.016Z,25.54
2023-05-06T09:40:59.037Z,25.11
2023-05-06T09:43:32.386Z,24.61
2023-05-06T09:46:09.077Z,24.27
2023-05-06T09:48:40.676Z,23.81
2023-05-06T09:51:12.587Z,23.93
2023-05-06T09:53:43.857Z,23.66
2023-05-06T09:56:15.721Z,23.92
2023-05-06T09:58:47.183Z,23.95
2023-05-06T10:01:25.195Z,23.98
2023-05-06T10:04:00.566Z,24.20
2023-05-06T10:06:29.090Z,24.76
2023-05-06T10:08:58.336Z,25.33
2023-05-06T10:11:27.354Z,25.51
2023-05-06T10:13:56.941Z,25.51
2023-05-06T10:16:25.127Z,25.42
2023-05-06T10:18:55.749Z,25.49
2023-05-06T10:21:29.034Z,25.85
2023-05-06T10:24:04.664Z,26.10
2023-05-06T10:26:34.146Z,25.71
2023-05-06T10:29:06.075Z,26.16
2023-05-06T10:31:35.748Z,25.42
2023-05-06T10:34:08.091Z,25.59
2023-05-06T10:36:38.625Z,25.47
2023-05-06T10:39:08.118Z,25.38
2023-05-06T10:41:37.785Z,25.40
2023-05-06T10:44:07.389Z,25.36
2023-05-06T10:46:59.847Z,25.38
2023-05-06T10:49:29.163Z,25.42
2023-05-06T10:52:14.677Z,25.33
2023-05-06T10:54:51.708Z,25.47
2023-05-06T10:57:20.940Z,25.44
2023-05-06T10:59:50.850Z,25.26
2023-05-06T11:02:21.501Z,25.26
2023-05-06T11:05:00.815Z,25.29
2023-05-06T11:07:29.054Z,25.45
2023-05-06T11:09:58.854Z,25.39
2023-05-06T11:12:46.426Z,25.39
2023-05-06T11:15:26.661Z,25.57
2023-05-06T11:17:55.973Z,25.87
2023-05-06T11:20:25.922Z,25.91
2023-05-06T11:22:54.809Z,25.95
2023-05-06T11:25:45.090Z,26.11
2023-05-06T11:28:14.330Z,26.09
2023-05-06T11:30:45.380Z,26.28
2023-05-06T11:33:21.611Z,26.45
2023-05-06T11:35:53.632Z,26.18
2023-05-06T11:38:23.531Z,25.84
2023-05-06T11:40:55.104Z,25.68
2023-05-06T11:43:26.364Z,25.74
2023-05-06T11:45:59.057Z,25.85
2023-05-06T11:48:30.106Z,25.80
2023-05-06T11:51:01.040Z,25.45
2023-05-06T11:53:33.885Z,25.59
2023-05-06T11:56:05.649Z,25.78
2023-05-06T11:58:37.489Z,25.97
2023-05-06T12:01:10.957Z,26.04
2023-05-06T12:03:42.347Z,25.90
2023-05-06T12:06:14.162Z,25.77
2023-05-06T12:08:44.986Z,25.63
2023-05-06T12:11:16.384Z,25.60
2023-05-06T12:13:51.048Z,25.21
2023-05-06T12:16:23.876Z,25.14
2023-05-06T12:18:56.235Z,24.92
2023-05-06T12:21:27.932Z,24.77
2023-05-06T12:24:00.318Z,24.71
2023-05-06T12:26:33.018Z,24.57
2023-05-06T12:29:08.973Z,24.56
2023-05-06T12:31:38.987Z,24.37
2023-05-06T12:34:07.246Z,24.42
2023-05-06T12:36:40.821Z,24.04
2023-05-06T12:39:09.543Z,23.93
2023-05-06T12:41:41.109Z,23.89
2023-05-06T12:44:34.841Z,24.05
2023-05-06T12:47:05.780Z,24.07
2023-05-06T12:49:50.481Z,23.92
2023-05-06T12:52:20.010Z,23.64
2023-05-06T12:54:49.048Z,23.64
2023-05-06T12:57:17.474Z,23.55
2023-05-06T12:59:49.460Z,23.57
2023-05-06T13:02:19.773Z,23.52
2023-05-06T13:04:47.981Z,23.17
2023-05-06T13:07:16.064Z,22.86
2023-05-06T13:12:13.189Z,22.43
2023-05-06T13:14:41.389Z,22.23
2023-05-06T13:17:09.845Z,22.22
2023-05-06T13:19:39.365Z,22.16
2023-05-06T13:22:07.627Z,22.18
2023-05-06T13:24:36.730Z,22.34
2023-05-06T13:27:04.905Z,22.47
2023-05-06T13:29:33.097Z,22.56
2023-05-06T13:32:01.870Z,22.67
2023-05-06T13:34:30.013Z,22.42
2023-05-06T13:37:00.007Z,22.48
2023-05-06T13:39:28.225Z,22.63
2023-05-06T13:41:56.360Z,22.66
2023-05-06T13:44:24.775Z,22.78
2023-05-06T13:46:53.377Z,22.89
2023-05-06T13:49:21.591Z,22.54
2023-05-06T13:51:50.042Z,22.10
2023-05-06T13:54:19.637Z,21.75
2023-05-06T13:56:47.842Z,21.53
2023-05-06T13:59:16.020Z,21.12
2023-05-06T14:01:44.613Z,20.97
2023-05-06T14:04:12.746Z,20.84
2023-05-06T14:06:40.767Z,20.79
2023-05-06T14:09:09.198Z,20.60
2023-05-06T14:11:38.798Z,20.45
2023-05-06T14:14:07.575Z,20.32
2023-05-06T14:16:35.870Z,20.28
2023-05-06T14:19:04.823Z,20.23
2023-05-06T14:21:32.963Z,19.96
2023-05-06T14:24:01.256Z,19.86
2023-05-06T14:26:29.424Z,19.65
2023-05-06T14:28:58.960Z,19.48
2023-05-06T14:31:27.969Z,19.27
2023-05-06T14:33:56.325Z,19.19
2023-05-06T14:36:24.392Z,19.06
2023-05-06T14:38:52.557Z,19.06
2023-05-06T14:41:21.018Z,18.94
2023-05-06T14:43:49.212Z,18.89
2023-05-06T14:46:19.119Z,18.92
2023-05-06T14:48:47.223Z,18.95
2023-05-06T14:51:15.347Z,18.94
2023-05-06T14:53:43.604Z,18.82
2023-05-06T14:56:12.080Z,18.86
2023-05-06T14:58:40.552Z,18.85
2023-05-06T15:01:08.726Z,18.87
2023-05-06T15:03:38.317Z,18.82
2023-05-06T15:06:06.737Z,18.89
2023-05-06T15:08:34.940Z,18.78
2023-05-06T15:11:04.292Z,18.66
2023-05-06T15:13:32.682Z,18.64
2023-05-06T15:16:00.865Z,18.72
2023-05-06T15:18:29.027Z,18.81
2023-05-06T15:21:01.647Z,18.90
2023-05-06T15:23:29.902Z,18.99
2023-05-06T15:25:58.934Z,19.12
2023-05-06T15:28:27.174Z,19.19
2023-05-06T15:30:55.329Z,19.11
2023-05-06T15:33:23.364Z,18.98
2023-05-06T15:35:51.603Z,19.02
2023-05-06T15:38:21.032Z,19.09
2023-05-06T15:40:52.211Z,19.14
2023-05-06T15:43:23.778Z,19.08
2023-05-06T15:45:53.081Z,19.29
2023-05-06T15:48:21.283Z,19.43
2023-05-06T15:50:49.388Z,19.65
2023-05-06T15:53:17.559Z,19.79
2023-05-06T15:55:56.319Z,19.86
2023-05-06T15:58:26.105Z,19.81
2023-05-06T16:00:54.196Z,19.98
2023-05-06T16:03:22.403Z,20.20
2023-05-06T16:05:50.742Z,20.38
2023-05-06T16:08:18.850Z,20.69
2023-05-06T16:10:48.406Z,20.68
2023-05-06T16:13:16.574Z,20.63
2023-05-06T16:15:45.077Z,20.58
2023-05-06T16:18:13.451Z,20.59
2023-05-06T16:20:41.805Z,20.65
2023-05-06T16:23:10.117Z,20.62
2023-05-06T16:25:39.050Z,20.47
2023-05-06T16:28:09.578Z,20.34
2023-05-06T16:30:38.159Z,20.24
2023-05-06T16:33:06.437Z,20.11
2023-05-06T16:35:34.573Z,20.00
2023-05-06T16:38:02.645Z,19.76
2023-05-06T16:40:31.218Z,19.62
2023-05-06T16:42:59.353Z,19.44
2023-05-06T16:45:28.950Z,19.31
2023-05-06T16:47:57.225Z,19.15
2023-05-06T16:50:25.447Z,18.93
2023-05-06T16:52:54.186Z,18.84
2023-05-06T16:55:22.643Z,18.80
2023-05-06T16:57:50.755Z,18.70
2023-05-06T17:00:19.841Z,18.62
2023-05-06T17:02:49.447Z,18.58
2023-05-06T17:05:20.172Z,18.55
2023-05-06T17:07:50.752Z,18.43
2023-05-06T17:10:19.215Z,18.41
2023-05-06T17:12:47.274Z,18.45
2023-05-06T17:15:15.424Z,18.31
2023-05-06T17:17:43.571Z,18.21
2023-05-06T17:20:13.762Z,18.14
2023-05-06T17:22:41.935Z,18.10
2023-05-06T17:25:10.659Z,18.11
2023-05-06T17:27:38.793Z,18.06
2023-05-06T17:30:09.614Z,18.03
2023-05-06T17:32:37.919Z,18.00
2023-05-06T17:35:06.654Z,17.98
2023-05-06T17:37:36.427Z,17.92
2023-05-06T17:40:06.012Z,17.84
2023-05-06T17:42:35.145Z,17.80
2023-05-06T17:45:03.551Z,17.75
2023-05-06T17:47:31.653Z,17.72
2023-05-06T17:49:59.694Z,17.71
2023-05-06T17:52:27.759Z,17.71
2023-05-06T17:55:11.306Z,17.68
2023-05-06T17:57:44.926Z,17.66
2023-05-06T18:00:14.136Z,17.60
2023-05-06T18:02:42.386Z,17.51
2023-05-06T18:05:11.488Z,17.35
2023-05-06T18:07:40.142Z,17.31
2023-05-06T18:10:10.982Z,17.27
2023-05-06T18:12:39.309Z,17.26
2023-05-06T18:15:09.064Z,17.22
2023-05-06T18:17:37.415Z,17.24
2023-05-06T18:20:06.677Z,17.16
2023-05-06T18:22:34.971Z,17.16
2023-05-06T18:25:04.404Z,17.17
2023-05-06T18:27:33.959Z,17.08
2023-05-06T18:30:02.456Z,16.97
2023-05-06T18:32:30.563Z,16.87
2023-05-06T18:34:58.724Z,16.90
2023-05-06T18:37:28.742Z,16.90
2023-05-06T18:39:56.904Z,16.91
2023-05-06T18:42:25.057Z,16.91
2023-05-06T18:44:54.612Z,16.86
2023-05-06T18:47:22.747Z,16.87
2023-05-06T18:49:50.935Z,16.87
2023-05-06T18:52:19.232Z,16.84
2023-05-06T18:54:47.470Z,16.80
2023-05-06T18:57:15.732Z,16.65
2023-05-06T18:59:43.847Z,16.46
2023-05-06T19:02:13.330Z,16.43
2023-05-06T19:04:41.459Z,16.28
2023-05-06T19:07:10.279Z,16.19
2023-05-06T19:09:38.435Z,16.13
2023-05-06T19:12:06.733Z,16.18
2023-05-06T19:14:35.289Z,16.15
2023-05-06T19:17:04.711Z,16.14
2023-05-06T19:19:34.432Z,16.16
2023-05-06T19:22:02.810Z,16.16
2023-05-06T19:24:31.589Z,16.10
2023-05-06T19:26:59.710Z,16.14
2023-05-06T19:29:27.795Z,16.15
2023-05-06T19:31:55.965Z,16.16
2023-05-06T19:34:24.139Z,16.14
2023-05-06T19:36:53.792Z,16.15
2023-05-06T19:39:22.034Z,16.14
2023-05-06T19:41:50.420Z,16.10
2023-05-06T19:44:18.536Z,15.96
2023-05-06T19:46:46.845Z,15.72
2023-05-06T19:49:15.038Z,15.45
2023-05-06T19:51:43.102Z,15.40
2023-05-06T19:54:12.510Z,15.41
2023-05-06T19:56:40.601Z,15.43
2023-05-06T19:59:08.653Z,15.48
2023-05-06T20:01:36.755Z,15.51
2023-05-06T20:04:05.344Z,15.53
2023-05-06T20:06:33.603Z,15.59
2023-05-06T20:09:01.714Z,15.69
2023-05-06T20:11:31.191Z,15.75
2023-05-06T20:13:59.281Z,15.75
2023-05-06T20:16:27.412Z,15.80
2023-05-06T20:18:55.614Z,15.79
2023-05-06T20:21:23.998Z,15.82
2023-05-06T20:23:52.121Z,15.80
2023-05-06T20:26:23.305Z,15.71
2023-05-06T20:28:54.489Z,15.70
2023-05-06T20:31:22.554Z,15.69
2023-05-06T20:33:50.730Z,15.63
2023-05-06T20:36:19.779Z,15.59
2023-05-06T20:38:50.099Z,15.48
2023-05-06T20:41:18.301Z,15.61
2023-05-06T20:43:46.435Z,15.66
2023-05-06T20:46:16.074Z,15.69
2023-05-06T20:48:44.124Z,15.75
2023-05-06T20:51:12.248Z,15.84
2023-05-06T20:53:40.312Z,15.92
2023-05-06T20:56:17.199Z,15.93
2023-05-06T20:58:45.245Z,15.90
2023-05-06T21:01:13.421Z,15.93
2023-05-06T21:03:43.117Z,15.95
2023-05-06T21:06:11.551Z,15.95
2023-05-06T21:08:39.655Z,15.90
2023-05-06T21:11:07.992Z,15.90
2023-05-06T21:13:36.128Z,15.88
2023-05-06T21:16:04.365Z,15.92
2023-05-06T21:18:32.604Z,15.85
2023-05-06T21:21:02.220Z,15.80
2023-05-06T21:23:30.292Z,15.75
2023-05-06T21:25:59.490Z,15.72
2023-05-06T21:28:27.596Z,15.70
2023-05-06T21:30:55.887Z,15.60
2023-05-06T21:33:24.019Z,15.66
2023-05-06T21:35:52.040Z,15.64
2023-05-06T21:38:21.593Z,15.55
2023-05-06T21:40:49.657Z,15.49
2023-05-06T21:43:18.513Z,15.43
2023-05-06T21:45:46.581Z,15.41
2023-05-06T21:48:14.639Z,15.27
2023-05-06T21:50:42.730Z,15.11
2023-05-06T21:53:10.810Z,14.95
2023-05-06T21:55:40.250Z,14.81
2023-05-06T21:58:08.369Z,14.74
2023-05-06T22:00:36.573Z,14.65
2023-05-06T22:03:05.088Z,14.61
2023-05-06T22:05:33.338Z,14.63
2023-05-06T22:08:01.671Z,14.62
2023-05-06T22:10:29.825Z,14.58
2023-05-06T22:12:59.408Z,14.60
2023-05-06T22:15:27.535Z,14.58
2023-05-06T22:17:55.690Z,14.58
2023-05-06T22:20:24.288Z,14.55
2023-05-06T22:22:52.626Z,14.49
2023-05-06T22:25:21.026Z,14.38
2023-05-06T22:27:49.158Z,14.31
2023-05-06T22:30:18.887Z,14.25
2023-05-06T22:32:46.967Z,14.15
2023-05-06T22:35:15.924Z,14.01
2023-05-06T22:37:44.089Z,13.97
2023-05-06T22:40:13.328Z,13.94
2023-05-06T22:42:41.402Z,13.93
2023-05-06T22:45:11.718Z,13.93
2023-05-06T22:47:41.590Z,13.94
2023-05-06T22:50:10.452Z,13.92
2023-05-06T22:52:39.058Z,13.92
2023-05-06T22:55:09.904Z,13.91
2023-05-06T22:57:38.281Z,13.94
2023-05-06T23:00:08.780Z,13.93
2023-05-06T23:02:37.460Z,13.95
2023-05-06T23:05:07.860Z,13.97
2023-05-06T23:07:36.588Z,13.99
2023-05-06T23:10:04.717Z,14.02
2023-05-06T23:12:33.708Z,14.04
2023-05-06T23:15:01.986Z,13.98
2023-05-06T23:17:30.110Z,14.01
2023-05-06T23:19:59.174Z,14.06
2023-05-06T23:22:28.673Z,14.07
2023-05-06T23:24:56.928Z,14.13
2023-05-06T23:27:25.023Z,14.15
2023-05-06T23:29:53.128Z,14.12
2023-05-06T23:32:21.319Z,14.11
2023-05-06T23:34:49.774Z,14.08
2023-05-06T23:37:17.876Z,14.02
2023-05-06T23:39:48.092Z,13.96
2023-05-06T23:42:16.191Z,13.92
2023-05-06T23:44:44.271Z,13.92
2023-05-06T23:47:12.401Z,13.80
2023-05-06T23:49:40.489Z,13.73
2023-05-06T23:52:08.535Z,13.64
2023-05-06T23:54:36.692Z,13.41
2023-05-06T23:57:06.301Z,13.29
2023-05-06T23:59:34.422Z,13.18
